sensor_id;sensor_type;location;lat;lon;timestamp;pressure;altitude;pressure_sealevel;temperature;humidity
38812;BME280;24553;51.640;-0.752;2022-11-03T00:01:54;99995.53;;;10.29;100.00
38812;BME280;24553;51.640;-0.752;2022-11-03T00:04:20;100005.94;;;10.31;100.00
38812;BME280;24553;51.640;-0.752;2022-11-03T00:06:48;100004.31;;;10.36;100.00
38812;BME280;24553;51.640;-0.752;2022-11-03T00:09:15;100009.03;;;10.41;100.00
38812;BME280;24553;51.640;-0.752;2022-11-03T00:11:42;100005.34;;;10.42;100.00
38812;BME280;24553;51.640;-0.752;2022-11-03T00:14:09;99984.13;;;10.42;100.00
38812;BME280;24553;51.640;-0.752;2022-11-03T00:16:35;99977.22;;;10.41;100.00
38812;BME280;24553;51.640;-0.752;2022-11-03T00:19:01;99961.91;;;10.36;100.00
38812;BME280;24553;51.640;-0.752;2022-11-03T00:21:27;99974.34;;;10.36;100.00
38812;BME280;24553;51.640;-0.752;2022-11-03T00:23:53;99953.56;;;10.33;100.00
38812;BME280;24553;51.640;-0.752;2022-11-03T00:26:23;99965.38;;;10.30;100.00
38812;BME280;24553;51.640;-0.752;2022-11-03T00:28:51;99964.53;;;10.30;100.00
38812;BME280;24553;51.640;-0.752;2022-11-03T00:31:23;99973.34;;;10.30;100.00
38812;BME280;24553;51.640;-0.752;2022-11-03T00:33:49;99966.59;;;10.28;100.00
38812;BME280;24553;51.640;-0.752;2022-11-03T00:36:18;99970.22;;;10.26;100.00
38812;BME280;24553;51.640;-0.752;2022-11-03T00:38:44;99952.69;;;10.25;100.00
38812;BME280;24553;51.640;-0.752;2022-11-03T00:41:10;99952.69;;;10.25;100.00
38812;BME280;24553;51.640;-0.752;2022-11-03T00:43:36;99959.84;;;10.25;100.00
38812;BME280;24553;51.640;-0.752;2022-11-03T00:46:03;99967.78;;;10.25;100.00
38812;BME280;24553;51.640;-0.752;2022-11-03T00:48:30;99966.59;;;10.28;100.00
38812;BME280;24553;51.640;-0.752;2022-11-03T00:51:08;99955.59;;;10.31;100.00
38812;BME280;24553;51.640;-0.752;2022-11-03T00:56:12;99941.75;;;10.35;100.00
38812;BME280;24553;51.640;-0.752;2022-11-03T00:58:38;99928.50;;;10.35;100.00
38812;BME280;24553;51.640;-0.752;2022-11-03T01:01:07;99920.94;;;10.39;100.00
38812;BME280;24553;51.640;-0.752;2022-11-03T01:03:34;99921.56;;;10.41;100.00
38812;BME280;24553;51.640;-0.752;2022-11-03T01:06:00;99923.78;;;10.37;100.00
38812;BME280;24553;51.640;-0.752;2022-11-03T01:08:45;99912.59;;;10.35;100.00
38812;BME280;24553;51.640;-0.752;2022-11-03T01:11:12;99923.78;;;10.37;100.00
38812;BME280;24553;51.640;-0.752;2022-11-03T01:13:56;99919.31;;;10.38;100.00
38812;BME280;24553;51.640;-0.752;2022-11-03T01:16:22;99931.53;;;10.39;100.00
38812;BME280;24553;51.640;-0.752;2022-11-03T01:18:48;99931.53;;;10.39;100.00
38812;BME280;24553;51.640;-0.752;2022-11-03T01:21:13;99940.31;;;10.39;100.00
38812;BME280;24553;51.640;-0.752;2022-11-03T01:23:38;99932.78;;;10.43;100.00
38812;BME280;24553;51.640;-0.752;2022-11-03T01:26:05;99925.41;;;10.45;100.00
38812;BME280;24553;51.640;-0.752;2022-11-03T01:28:38;99926.44;;;10.44;100.00
38812;BME280;24553;51.640;-0.752;2022-11-03T01:31:18;99940.50;;;10.44;100.00
38812;BME280;24553;51.640;-0.752;2022-11-03T01:33:45;99942.75;;;10.41;100.00
38812;BME280;24553;51.640;-0.752;2022-11-03T01:36:11;99942.75;;;10.41;100.00
38812;BME280;24553;51.640;-0.752;2022-11-03T01:38:37;99930.13;;;10.43;100.00
38812;BME280;24553;51.640;-0.752;2022-11-03T01:41:04;99924.59;;;10.44;100.00
38812;BME280;24553;51.640;-0.752;2022-11-03T01:43:30;99926.25;;;10.45;100.00
38812;BME280;24553;51.640;-0.752;2022-11-03T01:46:05;99921.97;;;10.44;100.00
38812;BME280;24553;51.640;-0.752;2022-11-03T01:48:34;99908.94;;;10.43;100.00
38812;BME280;24553;51.640;-0.752;2022-11-03T01:51:02;99898.31;;;10.43;100.00
38812;BME280;24553;51.640;-0.752;2022-11-03T01:53:29;99873.44;;;10.44;100.00
38812;BME280;24553;51.640;-0.752;2022-11-03T01:55:55;99866.72;;;10.41;100.00
38812;BME280;24553;51.640;-0.752;2022-11-03T01:58:28;99876.28;;;10.42;100.00
38812;BME280;24553;51.640;-0.752;2022-11-03T02:00:56;99874.47;;;10.43;100.00
38812;BME280;24553;51.640;-0.752;2022-11-03T02:03:26;99883.44;;;10.42;100.00
38812;BME280;24553;51.640;-0.752;2022-11-03T02:05:54;99875.47;;;10.42;100.00
38812;BME280;24553;51.640;-0.752;2022-11-03T02:08:30;99871.22;;;10.41;100.00
38812;BME280;24553;51.640;-0.752;2022-11-03T02:10:58;99854.88;;;10.37;100.00
38812;BME280;24553;51.640;-0.752;2022-11-03T02:13:25;99857.34;;;10.39;100.00
38812;BME280;24553;51.640;-0.752;2022-11-03T02:15:58;99864.06;;;10.41;100.00
38812;BME280;24553;51.640;-0.752;2022-11-03T02:18:27;99851.22;;;10.45;100.00
38812;BME280;24553;51.640;-0.752;2022-11-03T02:21:02;99854.69;;;10.45;100.00
38812;BME280;24553;51.640;-0.752;2022-11-03T02:23:42;99848.38;;;10.46;100.00
38812;BME280;24553;51.640;-0.752;2022-11-03T02:26:12;99849.41;;;10.45;100.00
38812;BME280;24553;51.640;-0.752;2022-11-03T02:28:39;99850.41;;;10.44;100.00
38812;BME280;24553;51.640;-0.752;2022-11-03T02:36:50;99821.44;;;10.50;100.00
38812;BME280;24553;51.640;-0.752;2022-11-03T02:39:15;99815.34;;;10.49;100.00
38812;BME280;24553;51.640;-0.752;2022-11-03T02:41:42;99809.22;;;10.48;100.00
38812;BME280;24553;51.640;-0.752;2022-11-03T02:44:16;99800.47;;;10.48;100.00
38812;BME280;24553;51.640;-0.752;2022-11-03T02:46:43;99799.63;;;10.47;100.00
38812;BME280;24553;51.640;-0.752;2022-11-03T02:49:09;99801.69;;;10.45;100.00
38812;BME280;24553;51.640;-0.752;2022-11-03T02:51:35;99782.31;;;10.45;100.00
38812;BME280;24553;51.640;-0.752;2022-11-03T02:56:34;99786.38;;;10.47;100.00
38812;BME280;24553;51.640;-0.752;2022-11-03T02:59:10;99778.22;;;10.49;100.00
38812;BME280;24553;51.640;-0.752;2022-11-03T03:01:39;99779.44;;;10.46;100.00
38812;BME280;24553;51.640;-0.752;2022-11-03T03:06:56;99765.59;;;10.44;100.00
38812;BME280;24553;51.640;-0.752;2022-11-03T03:09:28;99743.19;;;10.40;100.00
38812;BME280;24553;51.640;-0.752;2022-11-03T03:11:57;99731.97;;;10.38;100.00
38812;BME280;24553;51.640;-0.752;2022-11-03T03:14:27;99724.44;;;10.35;100.00
38812;BME280;24553;51.640;-0.752;2022-11-03T03:17:00;99720.38;;;10.33;100.00
38812;BME280;24553;51.640;-0.752;2022-11-03T03:21:56;99718.13;;;10.30;100.00
38812;BME280;24553;51.640;-0.752;2022-11-03T03:24:29;99727.09;;;10.29;100.00
38812;BME280;24553;51.640;-0.752;2022-11-03T03:26:59;99716.28;;;10.23;100.00
38812;BME280;24553;51.640;-0.752;2022-11-03T03:29:30;99716.47;;;10.22;100.00
38812;BME280;24553;51.640;-0.752;2022-11-03T03:32:00;99684.50;;;10.23;100.00
38812;BME280;24553;51.640;-0.752;2022-11-03T03:34:28;99694.69;;;10.20;100.00
38812;BME280;24553;51.640;-0.752;2022-11-03T03:36:57;99690.63;;;10.17;100.00
38812;BME280;24553;51.640;-0.752;2022-11-03T03:39:27;99672.28;;;10.16;100.00
38812;BME280;24553;51.640;-0.752;2022-11-03T03:41:55;99667.41;;;10.13;100.00
38812;BME280;24553;51.640;-0.752;2022-11-03T03:44:21;99677.56;;;10.09;100.00
38812;BME280;24553;51.640;-0.752;2022-11-03T03:46:51;99665.97;;;10.10;100.00
38812;BME280;24553;51.640;-0.752;2022-11-03T03:49:19;99670.66;;;10.08;100.00
38812;BME280;24553;51.640;-0.752;2022-11-03T03:51:45;99666.97;;;10.09;100.00
38812;BME280;24553;51.640;-0.752;2022-11-03T03:54:12;99662.91;;;10.07;100.00
38812;BME280;24553;51.640;-0.752;2022-11-03T03:56:40;99644.59;;;10.05;100.00
38812;BME280;24553;51.640;-0.752;2022-11-03T03:59:07;99653.56;;;10.04;100.00
38812;BME280;24553;51.640;-0.752;2022-11-03T04:01:33;99656.44;;;10.02;100.00
38812;BME280;24553;51.640;-0.752;2022-11-03T04:03:58;99655.63;;;10.02;100.00
38812;BME280;24553;51.640;-0.752;2022-11-03T04:06:24;99653.97;;;10.01;100.00
38812;BME280;24553;51.640;-0.752;2022-11-03T04:08:49;99662.94;;;10.00;100.00
38812;BME280;24553;51.640;-0.752;2022-11-03T04:11:14;99656.00;;;9.99;100.00
38812;BME280;24553;51.640;-0.752;2022-11-03T04:13:58;99619.97;;;9.98;100.00
38812;BME280;24553;51.640;-0.752;2022-11-03T04:16:42;99625.47;;;9.96;100.00
38812;BME280;24553;51.640;-0.752;2022-11-03T04:19:26;99610.78;;;9.94;100.00
38812;BME280;24553;51.640;-0.752;2022-11-03T04:22:10;99606.94;;;9.90;100.00
38812;BME280;24553;51.640;-0.752;2022-11-03T04:24:49;99602.47;;;9.90;100.00
38812;BME280;24553;51.640;-0.752;2022-11-03T04:27:32;99604.31;;;9.90;100.00
38812;BME280;24553;51.640;-0.752;2022-11-03T04:30:15;99598.78;;;9.91;100.00
38812;BME280;24553;51.640;-0.752;2022-11-03T04:32:43;99593.91;;;9.88;100.00
38812;BME280;24553;51.640;-0.752;2022-11-03T04:35:14;99596.56;;;9.88;100.00
38812;BME280;24553;51.640;-0.752;2022-11-03T04:37:41;99600.25;;;9.87;100.00
38812;BME280;24553;51.640;-0.752;2022-11-03T04:40:13;99608.00;;;9.89;100.00
38812;BME280;24553;51.640;-0.752;2022-11-03T04:42:39;99610.22;;;9.85;100.00
38812;BME280;24553;51.640;-0.752;2022-11-03T04:45:13;99616.13;;;9.87;100.00
38812;BME280;24553;51.640;-0.752;2022-11-03T04:47:41;99621.03;;;9.83;100.00
38812;BME280;24553;51.640;-0.752;2022-11-03T04:50:19;99624.25;;;9.86;100.00
38812;BME280;24553;51.640;-0.752;2022-11-03T04:52:56;99631.19;;;9.87;100.00
38812;BME280;24553;51.640;-0.752;2022-11-03T04:55:21;99616.53;;;9.84;100.00
38812;BME280;24553;51.640;-0.752;2022-11-03T04:57:47;99607.19;;;9.81;100.00
38812;BME280;24553;51.640;-0.752;2022-11-03T05:00:17;99592.53;;;9.79;100.00
38812;BME280;24553;51.640;-0.752;2022-11-03T05:02:44;99595.38;;;9.77;100.00
38812;BME280;24553;51.640;-0.752;2022-11-03T05:05:18;99596.41;;;9.76;100.00
38812;BME280;24553;51.640;-0.752;2022-11-03T05:07:46;99595.59;;;9.76;100.00
38812;BME280;24553;51.640;-0.752;2022-11-03T05:10:15;99595.78;;;9.74;100.00
38812;BME280;24553;51.640;-0.752;2022-11-03T05:12:41;99588.03;;;9.73;100.00
38812;BME280;24553;51.640;-0.752;2022-11-03T05:15:22;99588.88;;;9.73;100.00
38812;BME280;24553;51.640;-0.752;2022-11-03T05:17:51;99577.06;;;9.69;100.00
38812;BME280;24553;51.640;-0.752;2022-11-03T05:20:31;99585.81;;;9.70;100.00
38812;BME280;24553;51.640;-0.752;2022-11-03T05:22:57;99583.78;;;9.65;100.00
38812;BME280;24553;51.640;-0.752;2022-11-03T05:27:54;99566.91;;;9.59;100.00
38812;BME280;24553;51.640;-0.752;2022-11-03T05:30:20;99570.34;;;9.60;100.00
38812;BME280;24553;51.640;-0.752;2022-11-03T05:32:45;99572.19;;;9.59;100.00
38812;BME280;24553;51.640;-0.752;2022-11-03T05:35:18;99579.94;;;9.61;100.00
38812;BME280;24553;51.640;-0.752;2022-11-03T05:37:44;99577.47;;;9.59;100.00
38812;BME280;24553;51.640;-0.752;2022-11-03T05:40:20;99579.13;;;9.60;100.00
38812;BME280;24553;51.640;-0.752;2022-11-03T05:42:46;99574.03;;;9.59;100.00
38812;BME280;24553;51.640;-0.752;2022-11-03T05:45:31;99568.31;;;9.62;100.00
38812;BME280;24553;51.640;-0.752;2022-11-03T05:47:57;99576.25;;;9.62;100.00
38812;BME280;24553;51.640;-0.752;2022-11-03T05:50:25;99565.66;;;9.62;100.00
38812;BME280;24553;51.640;-0.752;2022-11-03T05:52:53;99569.97;;;9.63;100.00
38812;BME280;24553;51.640;-0.752;2022-11-03T05:55:29;99558.75;;;9.61;100.00
38812;BME280;24553;51.640;-0.752;2022-11-03T05:57:58;99552.84;;;9.59;100.00
38812;BME280;24553;51.640;-0.752;2022-11-03T06:00:30;99539.00;;;9.57;100.00
38812;BME280;24553;51.640;-0.752;2022-11-03T06:02:57;99526.19;;;9.54;100.00
38812;BME280;24553;51.640;-0.752;2022-11-03T06:05:24;99521.31;;;9.51;100.00
38812;BME280;24553;51.640;-0.752;2022-11-03T06:07:53;99517.47;;;9.47;100.00
38812;BME280;24553;51.640;-0.752;2022-11-03T06:12:55;99515.03;;;9.45;100.00
38812;BME280;24553;51.640;-0.752;2022-11-03T06:15:33;99525.44;;;9.40;100.00
38812;BME280;24553;51.640;-0.752;2022-11-03T06:18:00;99516.06;;;9.37;100.00
38812;BME280;24553;51.640;-0.752;2022-11-03T06:20:33;99516.88;;;9.38;100.00
38812;BME280;24553;51.640;-0.752;2022-11-03T06:22:59;99512.59;;;9.37;100.00
38812;BME280;24553;51.640;-0.752;2022-11-03T06:25:28;99520.53;;;9.37;100.00
38812;BME280;24553;51.640;-0.752;2022-11-03T06:28:00;99530.09;;;9.38;100.00
38812;BME280;24553;51.640;-0.752;2022-11-03T06:30:32;99518.09;;;9.35;100.00
38812;BME280;24553;51.640;-0.752;2022-11-03T06:32:58;99519.94;;;9.35;100.00
38812;BME280;24553;51.640;-0.752;2022-11-03T06:35:24;99518.53;;;9.32;100.00
38812;BME280;24553;51.640;-0.752;2022-11-03T06:37:50;99510.78;;;9.31;100.00
38812;BME280;24553;51.640;-0.752;2022-11-03T06:42:41;99518.94;;;9.29;100.00
38812;BME280;24553;51.640;-0.752;2022-11-03T06:47:39;99532.16;;;9.29;100.00
38812;BME280;24553;51.640;-0.752;2022-11-03T06:50:21;99526.25;;;9.27;100.00
38812;BME280;24553;51.640;-0.752;2022-11-03T06:52:47;99514.44;;;9.23;100.00
38812;BME280;24553;51.640;-0.752;2022-11-03T06:55:26;99503.25;;;9.21;100.00
38812;BME280;24553;51.640;-0.752;2022-11-03T07:00:42;99496.16;;;9.15;100.00
38812;BME280;24553;51.640;-0.752;2022-11-03T07:03:28;99490.25;;;9.13;100.00
38812;BME280;24553;51.640;-0.752;2022-11-03T07:08:36;99487.03;;;9.04;100.00
38812;BME280;24553;51.640;-0.752;2022-11-03T07:11:49;99487.81;;;8.98;100.00
38812;BME280;24553;51.640;-0.752;2022-11-03T07:14:03;99488.03;;;8.97;100.00
38812;BME280;24553;51.640;-0.752;2022-11-03T07:16:39;99498.19;;;8.93;100.00
38812;BME280;24553;51.640;-0.752;2022-11-03T07:19:16;99502.06;;;8.90;100.00
38812;BME280;24553;51.640;-0.752;2022-11-03T07:21:44;99506.75;;;8.88;100.00
38812;BME280;24553;51.640;-0.752;2022-11-03T07:24:25;99501.06;;;8.91;100.00
38812;BME280;24553;51.640;-0.752;2022-11-03T07:27:14;99517.53;;;8.93;100.00
38812;BME280;24553;51.640;-0.752;2022-11-03T07:29:41;99523.00;;;8.92;100.00
38812;BME280;24553;51.640;-0.752;2022-11-03T07:32:23;99520.38;;;8.92;100.00
38812;BME280;24553;51.640;-0.752;2022-11-03T07:34:51;99523.22;;;8.90;100.00
38812;BME280;24553;51.640;-0.752;2022-11-03T07:37:19;99521.59;;;8.89;100.00
38812;BME280;24553;51.640;-0.752;2022-11-03T07:39:46;99521.78;;;8.88;100.00
38812;BME280;24553;51.640;-0.752;2022-11-03T07:42:17;99512.63;;;8.90;100.00
38812;BME280;24553;51.640;-0.752;2022-11-03T07:44:44;99509.78;;;8.92;100.00
38812;BME280;24553;51.640;-0.752;2022-11-03T07:47:23;99497.81;;;8.96;100.00
38812;BME280;24553;51.640;-0.752;2022-11-03T07:49:53;99488.66;;;8.99;100.00
38812;BME280;24553;51.640;-0.752;2022-11-03T07:52:22;99485.59;;;9.02;100.00
38812;BME280;24553;51.640;-0.752;2022-11-03T07:54:49;99477.44;;;9.03;100.00
38812;BME280;24553;51.640;-0.752;2022-11-03T07:57:21;99481.72;;;9.04;100.00
38812;BME280;24553;51.640;-0.752;2022-11-03T07:59:49;99486.00;;;9.05;100.00
38812;BME280;24553;51.640;-0.752;2022-11-03T08:02:28;99497.78;;;9.09;100.00
38812;BME280;24553;51.640;-0.752;2022-11-03T08:04:54;99490.06;;;9.08;100.00
38812;BME280;24553;51.640;-0.752;2022-11-03T08:07:20;99492.69;;;9.08;100.00
38812;BME280;24553;51.640;-0.752;2022-11-03T08:09:45;99501.25;;;9.10;100.00
38812;BME280;24553;51.640;-0.752;2022-11-03T08:12:11;99490.06;;;9.08;100.00
38812;BME280;24553;51.640;-0.752;2022-11-03T08:14:36;99502.28;;;9.09;100.00
38812;BME280;24553;51.640;-0.752;2022-11-03T08:17:02;99497.56;;;9.11;100.00
38812;BME280;24553;51.640;-0.752;2022-11-03T08:19:27;99502.66;;;9.12;100.00
38812;BME280;24553;51.640;-0.752;2022-11-03T08:21:53;99501.25;;;9.16;100.00
38812;BME280;24553;51.640;-0.752;2022-11-03T08:24:18;99499.81;;;9.21;100.00
38812;BME280;24553;51.640;-0.752;2022-11-03T08:26:43;99504.91;;;9.22;100.00
38812;BME280;24553;51.640;-0.752;2022-11-03T08:29:09;99507.31;;;9.24;100.00
38812;BME280;24553;51.640;-0.752;2022-11-03T08:31:34;99505.72;;;9.23;100.00
38812;BME280;24553;51.640;-0.752;2022-11-03T08:33:59;99514.44;;;9.23;100.00
38812;BME280;24553;51.640;-0.752;2022-11-03T08:36:25;99518.53;;;9.26;100.00
38812;BME280;24553;51.640;-0.752;2022-11-03T08:38:50;99516.09;;;9.24;100.00
38812;BME280;24553;51.640;-0.752;2022-11-03T08:41:15;99518.53;;;9.19;100.00
38812;BME280;24553;51.640;-0.752;2022-11-03T08:43:41;99504.28;;;9.20;100.00
38812;BME280;24553;51.640;-0.752;2022-11-03T08:46:06;99491.69;;;9.22;100.00
38812;BME280;24553;51.640;-0.752;2022-11-03T08:48:31;99498.38;;;9.25;100.00
38812;BME280;24553;51.640;-0.752;2022-11-03T08:50:57;99488.41;;;9.20;100.00
38812;BME280;24553;51.640;-0.752;2022-11-03T08:53:25;99485.97;;;9.18;100.00
38812;BME280;24553;51.640;-0.752;2022-11-03T08:55:53;99489.84;;;9.16;100.00
38812;BME280;24553;51.640;-0.752;2022-11-03T08:58:19;99500.22;;;9.17;100.00
38812;BME280;24553;51.640;-0.752;2022-11-03T09:00:45;99499.81;;;9.21;100.00
38812;BME280;24553;51.640;-0.752;2022-11-03T09:03:11;99503.88;;;9.23;100.00
38812;BME280;24553;51.640;-0.752;2022-11-03T09:05:37;99501.84;;;9.25;100.00
38812;BME280;24553;51.640;-0.752;2022-11-03T09:08:02;99494.50;;;9.21;100.00
38812;BME280;24553;51.640;-0.752;2022-11-03T09:10:27;99489.84;;;9.23;100.00
38812;BME280;24553;51.640;-0.752;2022-11-03T09:12:53;99490.66;;;9.23;100.00
38812;BME280;24553;51.640;-0.752;2022-11-03T09:15:18;99484.94;;;9.26;100.00
38812;BME280;24553;51.640;-0.752;2022-11-03T09:17:44;99493.47;;;9.28;100.00
38812;BME280;24553;51.640;-0.752;2022-11-03T09:20:10;99492.50;;;9.29;100.00
38812;BME280;24553;51.640;-0.752;2022-11-03T09:22:36;99492.50;;;9.29;100.00
38812;BME280;24553;51.640;-0.752;2022-11-03T09:25:01;99495.94;;;9.30;100.00
38812;BME280;24553;51.640;-0.752;2022-11-03T09:27:26;99491.25;;;9.25;100.00
38812;BME280;24553;51.640;-0.752;2022-11-03T09:29:52;99493.72;;;9.27;100.00
38812;BME280;24553;51.640;-0.752;2022-11-03T09:32:17;99495.31;;;9.28;100.00
38812;BME280;24553;51.640;-0.752;2022-11-03T09:34:43;99490.66;;;9.30;100.00
38812;BME280;24553;51.640;-0.752;2022-11-03T09:37:08;99489.63;;;9.31;100.00
38812;BME280;24553;51.640;-0.752;2022-11-03T09:39:34;99487.34;;;9.34;100.00
38812;BME280;24553;51.640;-0.752;2022-11-03T09:41:59;99488.56;;;9.38;100.00
38812;BME280;24553;51.640;-0.752;2022-11-03T09:44:27;99480.44;;;9.40;100.00
38812;BME280;24553;51.640;-0.752;2022-11-03T09:46:53;99488.97;;;9.42;100.00
38812;BME280;24553;51.640;-0.752;2022-11-03T09:49:19;99484.72;;;9.41;100.00
38812;BME280;24553;51.640;-0.752;2022-11-03T09:51:44;99482.06;;;9.41;100.00
38812;BME280;24553;51.640;-0.752;2022-11-03T09:54:14;99482.66;;;9.43;100.00
38812;BME280;24553;51.640;-0.752;2022-11-03T09:56:41;99479.81;;;9.45;100.00
38812;BME280;24553;51.640;-0.752;2022-11-03T09:59:33;99478.19;;;9.44;100.00
38812;BME280;24553;51.640;-0.752;2022-11-03T10:01:58;99475.34;;;9.45;100.00
38812;BME280;24553;51.640;-0.752;2022-11-03T10:04:27;99466.19;;;9.48;100.00
38812;BME280;24553;51.640;-0.752;2022-11-03T10:06:57;99467.41;;;9.45;100.00
38812;BME280;24553;51.640;-0.752;2022-11-03T10:09:23;99462.69;;;9.47;100.00
38812;BME280;24553;51.640;-0.752;2022-11-03T10:11:52;99462.50;;;9.49;100.00
38812;BME280;24553;51.640;-0.752;2022-11-03T10:14:18;99459.06;;;9.48;100.00
38812;BME280;24553;51.640;-0.752;2022-11-03T10:16:55;99467.59;;;9.50;100.00
38812;BME280;24553;51.640;-0.752;2022-11-03T10:19:22;99455.19;;;9.51;100.00
38812;BME280;24553;51.640;-0.752;2022-11-03T10:21:48;99461.06;;;9.53;100.00
38812;BME280;24553;51.640;-0.752;2022-11-03T10:24:13;99461.88;;;9.53;100.00
38812;BME280;24553;51.640;-0.752;2022-11-03T10:26:52;99466.16;;;9.54;100.00
38812;BME280;24553;51.640;-0.752;2022-11-03T10:31:47;99459.00;;;9.55;100.00
38812;BME280;24553;51.640;-0.752;2022-11-03T10:34:35;99448.84;;;9.52;100.00
38812;BME280;24553;51.640;-0.752;2022-11-03T10:37:23;99455.19;;;9.51;100.00
38812;BME280;24553;51.640;-0.752;2022-11-03T10:39:54;99449.47;;;9.54;100.00
38812;BME280;24553;51.640;-0.752;2022-11-03T10:42:22;99448.84;;;9.52;100.00
38812;BME280;24553;51.640;-0.752;2022-11-03T10:45:09;99442.09;;;9.63;100.00
38812;BME280;24553;51.640;-0.752;2022-11-03T10:47:35;99437.19;;;9.66;100.00
38812;BME280;24553;51.640;-0.752;2022-11-03T10:50:28;99438.81;;;9.67;100.00
38812;BME280;24553;51.640;-0.752;2022-11-03T10:52:53;99426.44;;;9.61;100.00
38812;BME280;24553;51.640;-0.752;2022-11-03T10:55:20;99424.78;;;9.60;100.00
38812;BME280;24553;51.640;-0.752;2022-11-03T10:57:46;99419.69;;;9.65;100.00
38812;BME280;24553;51.640;-0.752;2022-11-03T11:00:13;99403.16;;;9.70;100.00
38812;BME280;24553;51.640;-0.752;2022-11-03T11:02:41;99402.19;;;9.64;100.00
38812;BME280;24553;51.640;-0.752;2022-11-03T11:05:22;99397.50;;;9.66;100.00
38812;BME280;24553;51.640;-0.752;2022-11-03T11:07:51;99383.22;;;9.67;100.00
38812;BME280;24553;51.640;-0.752;2022-11-03T11:10:23;99377.13;;;9.67;100.00
38812;BME280;24553;51.640;-0.752;2022-11-03T11:15:44;99358.75;;;9.78;100.00
38812;BME280;24553;51.640;-0.752;2022-11-03T11:23:45;99335.03;;;9.90;100.00
38812;BME280;24553;51.640;-0.752;2022-11-03T11:31:40;99330.13;;;9.94;100.00
38812;BME280;24553;51.640;-0.752;2022-11-03T11:36:36;99337.41;;;9.98;100.00
38812;BME280;24553;51.640;-0.752;2022-11-03T11:39:03;99324.41;;;9.97;100.00
38812;BME280;24553;51.640;-0.752;2022-11-03T11:57:48;99271.41;;;10.84;100.00
38812;BME280;24553;51.640;-0.752;2022-11-03T12:02:45;99263.03;;;10.87;100.00
38812;BME280;24553;51.640;-0.752;2022-11-03T12:05:21;99257.28;;;10.90;100.00
38812;BME280;24553;51.640;-0.752;2022-11-03T12:07:48;99255.50;;;10.84;100.00
38812;BME280;24553;51.640;-0.752;2022-11-03T12:10:16;99242.06;;;10.67;100.00
38812;BME280;24553;51.640;-0.752;2022-11-03T12:12:42;99249.47;;;10.58;100.00
38812;BME280;24553;51.640;-0.752;2022-11-03T12:18:40;99245.16;;;10.45;100.00
38812;BME280;24553;51.640;-0.752;2022-11-03T12:21:10;99243.91;;;10.48;100.00
38812;BME280;24553;51.640;-0.752;2022-11-03T12:23:43;99244.72;;;10.48;100.00
38812;BME280;24553;51.640;-0.752;2022-11-03T12:28:53;99246.91;;;10.52;100.00
38812;BME280;24553;51.640;-0.752;2022-11-03T12:31:18;99239.31;;;10.37;100.00
38812;BME280;24553;51.640;-0.752;2022-11-03T12:33:44;99236.06;;;10.35;100.00
38812;BME280;24553;51.640;-0.752;2022-11-03T12:36:09;99236.06;;;10.35;100.00
38812;BME280;24553;51.640;-0.752;2022-11-03T12:38:35;99241.16;;;10.36;100.00
38812;BME280;24553;51.640;-0.752;2022-11-03T12:41:01;99244.63;;;10.37;100.00
38812;BME280;24553;51.640;-0.752;2022-11-03T12:43:49;99238.16;;;10.33;100.00
38812;BME280;24553;51.640;-0.752;2022-11-03T12:46:19;99243.38;;;10.39;100.00
38812;BME280;24553;51.640;-0.752;2022-11-03T12:48:45;99249.91;;;10.37;100.00
38812;BME280;24553;51.640;-0.752;2022-11-03T12:51:13;99262.41;;;10.30;100.00
38812;BME280;24553;51.640;-0.752;2022-11-03T12:53:39;99274.91;;;10.22;100.00
38812;BME280;24553;51.640;-0.752;2022-11-03T12:56:06;99264.78;;;10.13;100.00
38812;BME280;24553;51.640;-0.752;2022-11-03T12:58:31;99267.66;;;10.11;100.00
38812;BME280;24553;51.640;-0.752;2022-11-03T13:00:57;99253.88;;;10.02;100.00
38812;BME280;24553;51.640;-0.752;2022-11-03T13:03:22;99242.31;;;9.97;100.00
38812;BME280;24553;51.640;-0.752;2022-11-03T13:05:48;99254.38;;;9.93;100.00
38812;BME280;24553;51.640;-0.752;2022-11-03T13:08:13;99254.38;;;9.93;100.00
38812;BME280;24553;51.640;-0.752;2022-11-03T13:10:38;99243.56;;;9.94;100.00
38812;BME280;24553;51.640;-0.752;2022-11-03T13:13:05;99246.16;;;10.01;100.00
38812;BME280;24553;51.640;-0.752;2022-11-03T13:15:30;99242.03;;;10.05;100.00
38812;BME280;24553;51.640;-0.752;2022-11-03T13:17:55;99236.34;;;10.01;100.00
38812;BME280;24553;51.640;-0.752;2022-11-03T13:20:21;99211.13;;;9.99;100.00
38812;BME280;24553;51.640;-0.752;2022-11-03T13:22:46;99243.50;;;10.01;100.00
38812;BME280;24553;51.640;-0.752;2022-11-03T13:25:12;99261.03;;;10.02;100.00
38812;BME280;24553;51.640;-0.752;2022-11-03T13:27:37;99245.69;;;10.04;100.00
38812;BME280;24553;51.640;-0.752;2022-11-03T13:30:04;99242.19;;;10.10;100.00
38812;BME280;24553;51.640;-0.752;2022-11-03T13:32:29;99240.72;;;10.14;100.00
38812;BME280;24553;51.640;-0.752;2022-11-03T13:34:55;99251.72;;;10.18;100.00
38812;BME280;24553;51.640;-0.752;2022-11-03T13:37:20;99269.38;;;10.24;100.00
38812;BME280;24553;51.640;-0.752;2022-11-03T13:39:45;99281.56;;;10.32;100.00
38812;BME280;24553;51.640;-0.752;2022-11-03T13:42:11;99265.91;;;10.30;100.00
38812;BME280;24553;51.640;-0.752;2022-11-03T13:44:36;99256.84;;;10.38;100.00
38812;BME280;24553;51.640;-0.752;2022-11-03T13:47:02;99251.16;;;10.53;100.00
38812;BME280;24553;51.640;-0.752;2022-11-03T13:49:28;99254.50;;;10.85;100.00
38812;BME280;24553;51.640;-0.752;2022-11-03T13:51:54;99249.91;;;11.22;100.00
38812;BME280;24553;51.640;-0.752;2022-11-03T13:54:20;99243.28;;;11.43;100.00
38812;BME280;24553;51.640;-0.752;2022-11-03T13:56:45;99219.53;;;11.37;100.00
38812;BME280;24553;51.640;-0.752;2022-11-03T13:59:10;99207.09;;;11.49;100.00
38812;BME280;24553;51.640;-0.752;2022-11-03T14:01:36;99206.41;;;11.53;100.00
38812;BME280;24553;51.640;-0.752;2022-11-03T14:04:02;99211.28;;;11.56;100.00
38812;BME280;24553;51.640;-0.752;2022-11-03T14:06:28;99215.50;;;11.46;100.00
38812;BME280;24553;51.640;-0.752;2022-11-03T14:08:53;99201.50;;;11.27;100.00
38812;BME280;24553;51.640;-0.752;2022-11-03T14:11:18;99200.03;;;11.01;100.00